sensor_id;sensor_type;location;lat;lon;timestamp;P1;durP1;ratioP1;P2;durP2;ratioP2
40955;SDS011;26687;48.254;11.454;2022-11-15T00:01:55;17.80;;;15.37;;
40955;SDS011;26687;48.254;11.454;2022-11-15T00:04:55;16.45;;;14.30;;
40955;SDS011;26687;48.254;11.454;2022-11-15T00:07:56;16.02;;;13.80;;
40955;SDS011;26687;48.254;11.454;2022-11-15T00:10:57;15.30;;;13.70;;
40955;SDS011;26687;48.254;11.454;2022-11-15T00:13:57;15.55;;;13.90;;
40955;SDS011;26687;48.254;11.454;2022-11-15T00:16:58;16.63;;;14.23;;
40955;SDS011;26687;48.254;11.454;2022-11-15T00:19:58;15.07;;;13.03;;
40955;SDS011;26687;48.254;11.454;2022-11-15T00:22:58;13.75;;;12.35;;
40955;SDS011;26687;48.254;11.454;2022-11-15T00:25:58;12.67;;;11.40;;
40955;SDS011;26687;48.254;11.454;2022-11-15T00:28:59;12.07;;;10.75;;
40955;SDS011;26687;48.254;11.454;2022-11-15T00:31:59;11.68;;;10.48;;
40955;SDS011;26687;48.254;11.454;2022-11-15T00:34:59;10.68;;;9.68;;
40955;SDS011;26687;48.254;11.454;2022-11-15T00:37:59;10.82;;;9.27;;
40955;SDS011;26687;48.254;11.454;2022-11-15T00:41:00;9.63;;;8.52;;
40955;SDS011;26687;48.254;11.454;2022-11-15T00:44:00;10.02;;;9.02;;
40955;SDS011;26687;48.254;11.454;2022-11-15T00:47:00;9.10;;;8.30;;
40955;SDS011;26687;48.254;11.454;2022-11-15T00:50:01;10.25;;;8.73;;
40955;SDS011;26687;48.254;11.454;2022-11-15T00:53:01;9.73;;;8.82;;
40955;SDS011;26687;48.254;11.454;2022-11-15T00:56:01;10.02;;;9.10;;
40955;SDS011;26687;48.254;11.454;2022-11-15T00:59:01;9.93;;;9.00;;
40955;SDS011;26687;48.254;11.454;2022-11-15T01:02:01;11.32;;;9.70;;
40955;SDS011;26687;48.254;11.454;2022-11-15T01:05:01;10.18;;;9.15;;
40955;SDS011;26687;48.254;11.454;2022-11-15T01:08:02;10.93;;;9.93;;
40955;SDS011;26687;48.254;11.454;2022-11-15T01:11:09;11.60;;;10.10;;
40955;SDS011;26687;48.254;11.454;2022-11-15T01:14:10;12.00;;;10.65;;
40955;SDS011;26687;48.254;11.454;2022-11-15T01:17:10;13.23;;;11.83;;
40955;SDS011;26687;48.254;11.454;2022-11-15T01:20:10;12.00;;;10.80;;
40955;SDS011;26687;48.254;11.454;2022-11-15T01:23:11;10.05;;;9.13;;
40955;SDS011;26687;48.254;11.454;2022-11-15T01:26:12;10.57;;;8.73;;
40955;SDS011;26687;48.254;11.454;2022-11-15T01:29:12;10.30;;;9.27;;
40955;SDS011;26687;48.254;11.454;2022-11-15T01:32:13;11.52;;;10.43;;
40955;SDS011;26687;48.254;11.454;2022-11-15T01:35:13;10.20;;;9.20;;
40955;SDS011;26687;48.254;11.454;2022-11-15T01:38:13;10.25;;;9.13;;
40955;SDS011;26687;48.254;11.454;2022-11-15T01:41:17;10.57;;;9.57;;
40955;SDS011;26687;48.254;11.454;2022-11-15T01:47:37;12.25;;;10.68;;
40955;SDS011;26687;48.254;11.454;2022-11-15T01:50:39;11.05;;;9.90;;
40955;SDS011;26687;48.254;11.454;2022-11-15T01:53:40;12.23;;;10.73;;
40955;SDS011;26687;48.254;11.454;2022-11-15T01:56:46;11.18;;;10.07;;
40955;SDS011;26687;48.254;11.454;2022-11-15T01:59:47;10.02;;;9.02;;
40955;SDS011;26687;48.254;11.454;2022-11-15T02:02:48;10.25;;;9.15;;
40955;SDS011;26687;48.254;11.454;2022-11-15T02:05:48;9.47;;;8.47;;
40955;SDS011;26687;48.254;11.454;2022-11-15T02:08:49;9.85;;;8.95;;
40955;SDS011;26687;48.254;11.454;2022-11-15T02:11:49;10.73;;;9.10;;
40955;SDS011;26687;48.254;11.454;2022-11-15T02:14:51;9.40;;;8.50;;
40955;SDS011;26687;48.254;11.454;2022-11-15T02:30:25;11.40;;;9.63;;
40955;SDS011;26687;48.254;11.454;2022-11-15T02:39:53;11.38;;;8.10;;
40955;SDS011;26687;48.254;11.454;2022-11-15T02:43:06;11.55;;;7.57;;
40955;SDS011;26687;48.254;11.454;2022-11-15T02:50:08;8.25;;;7.55;;
40955;SDS011;26687;48.254;11.454;2022-11-15T02:53:09;7.68;;;6.97;;
40955;SDS011;26687;48.254;11.454;2022-11-15T02:56:09;9.07;;;7.45;;
40955;SDS011;26687;48.254;11.454;2022-11-15T03:05:34;7.75;;;7.05;;
40955;SDS011;26687;48.254;11.454;2022-11-15T03:08:37;7.97;;;6.97;;
40955;SDS011;26687;48.254;11.454;2022-11-15T03:11:41;8.30;;;7.45;;
40955;SDS011;26687;48.254;11.454;2022-11-15T03:14:48;7.72;;;6.95;;
40955;SDS011;26687;48.254;11.454;2022-11-15T03:17:51;7.65;;;6.85;;
40955;SDS011;26687;48.254;11.454;2022-11-15T03:20:52;8.00;;;7.20;;
40955;SDS011;26687;48.254;11.454;2022-11-15T03:23:53;8.55;;;7.75;;
40955;SDS011;26687;48.254;11.454;2022-11-15T03:26:54;8.80;;;7.55;;
40955;SDS011;26687;48.254;11.454;2022-11-15T03:29:57;7.85;;;7.15;;
40955;SDS011;26687;48.254;11.454;2022-11-15T03:32:58;9.50;;;7.70;;
40955;SDS011;26687;48.254;11.454;2022-11-15T03:35:58;8.68;;;7.88;;
40955;SDS011;26687;48.254;11.454;2022-11-15T03:38:59;9.57;;;8.35;;
40955;SDS011;26687;48.254;11.454;2022-11-15T03:45:02;9.48;;;8.57;;
40955;SDS011;26687;48.254;11.454;2022-11-15T03:48:08;10.65;;;9.55;;
40955;SDS011;26687;48.254;11.454;2022-11-15T03:51:10;11.00;;;9.55;;
40955;SDS011;26687;48.254;11.454;2022-11-15T03:54:11;11.48;;;8.85;;
40955;SDS011;26687;48.254;11.454;2022-11-15T03:57:12;8.02;;;7.22;;
40955;SDS011;26687;48.254;11.454;2022-11-15T04:00:12;7.63;;;6.85;;
40955;SDS011;26687;48.254;11.454;2022-11-15T04:03:12;8.40;;;6.73;;
40955;SDS011;26687;48.254;11.454;2022-11-15T04:06:12;7.32;;;6.63;;
40955;SDS011;26687;48.254;11.454;2022-11-15T04:09:13;7.43;;;6.00;;
40955;SDS011;26687;48.254;11.454;2022-11-15T04:12:13;6.70;;;6.10;;
40955;SDS011;26687;48.254;11.454;2022-11-15T04:15:30;7.32;;;5.90;;
40955;SDS011;26687;48.254;11.454;2022-11-15T04:18:30;6.60;;;6.00;;
40955;SDS011;26687;48.254;11.454;2022-11-15T04:21:30;7.27;;;6.57;;
40955;SDS011;26687;48.254;11.454;2022-11-15T04:24:49;7.50;;;6.80;;
40955;SDS011;26687;48.254;11.454;2022-11-15T04:27:50;6.87;;;6.27;;
40955;SDS011;26687;48.254;11.454;2022-11-15T04:30:50;6.53;;;5.90;;
40955;SDS011;26687;48.254;11.454;2022-11-15T04:33:50;6.17;;;5.63;;
40955;SDS011;26687;48.254;11.454;2022-11-15T04:36:50;7.83;;;6.30;;
40955;SDS011;26687;48.254;11.454;2022-11-15T04:40:09;8.02;;;5.55;;
40955;SDS011;26687;48.254;11.454;2022-11-15T04:43:09;6.72;;;6.03;;
40955;SDS011;26687;48.254;11.454;2022-11-15T04:46:09;7.72;;;6.88;;
40955;SDS011;26687;48.254;11.454;2022-11-15T04:49:09;7.22;;;6.53;;
40955;SDS011;26687;48.254;11.454;2022-11-15T04:52:10;7.78;;;6.97;;
40955;SDS011;26687;48.254;11.454;2022-11-15T04:55:10;7.17;;;6.47;;
40955;SDS011;26687;48.254;11.454;2022-11-15T04:58:10;6.35;;;5.75;;
40955;SDS011;26687;48.254;11.454;2022-11-15T05:01:11;7.10;;;6.40;;
40955;SDS011;26687;48.254;11.454;2022-11-15T05:04:14;6.63;;;5.88;;
40955;SDS011;26687;48.254;11.454;2022-11-15T05:07:20;7.00;;;6.00;;
40955;SDS011;26687;48.254;11.454;2022-11-15T05:10:20;6.40;;;5.80;;
40955;SDS011;26687;48.254;11.454;2022-11-15T05:13:20;10.10;;;6.07;;
40955;SDS011;26687;48.254;11.454;2022-11-15T05:16:20;6.18;;;5.57;;
40955;SDS011;26687;48.254;11.454;2022-11-15T05:19:21;5.68;;;5.18;;
40955;SDS011;26687;48.254;11.454;2022-11-15T05:22:21;6.35;;;5.55;;
40955;SDS011;26687;48.254;11.454;2022-11-15T05:25:22;5.43;;;4.95;;
40955;SDS011;26687;48.254;11.454;2022-11-15T05:28:22;5.55;;;4.97;;
40955;SDS011;26687;48.254;11.454;2022-11-15T05:31:22;5.22;;;4.75;;
40955;SDS011;26687;48.254;11.454;2022-11-15T05:34:23;5.85;;;5.30;;
40955;SDS011;26687;48.254;11.454;2022-11-15T05:37:25;5.75;;;5.25;;
40955;SDS011;26687;48.254;11.454;2022-11-15T05:40:26;5.90;;;5.40;;
40955;SDS011;26687;48.254;11.454;2022-11-15T05:43:27;5.47;;;4.97;;
40955;SDS011;26687;48.254;11.454;2022-11-15T05:46:27;5.60;;;5.10;;
40955;SDS011;26687;48.254;11.454;2022-11-15T05:49:29;5.70;;;5.20;;
40955;SDS011;26687;48.254;11.454;2022-11-15T05:52:31;6.15;;;5.50;;
40955;SDS011;26687;48.254;11.454;2022-11-15T05:55:33;6.17;;;5.30;;
40955;SDS011;26687;48.254;11.454;2022-11-15T05:58:33;5.75;;;5.25;;
40955;SDS011;26687;48.254;11.454;2022-11-15T06:01:33;5.22;;;4.72;;
40955;SDS011;26687;48.254;11.454;2022-11-15T06:04:34;5.63;;;5.13;;
40955;SDS011;26687;48.254;11.454;2022-11-15T06:07:34;5.23;;;4.83;;
40955;SDS011;26687;48.254;11.454;2022-11-15T06:10:34;5.13;;;4.63;;
40955;SDS011;26687;48.254;11.454;2022-11-15T06:13:35;6.10;;;5.60;;
40955;SDS011;26687;48.254;11.454;2022-11-15T06:16:35;7.53;;;5.82;;
40955;SDS011;26687;48.254;11.454;2022-11-15T06:19:35;6.22;;;5.63;;
40955;SDS011;26687;48.254;11.454;2022-11-15T06:22:35;6.03;;;5.20;;
40955;SDS011;26687;48.254;11.454;2022-11-15T06:25:35;5.77;;;5.27;;
40955;SDS011;26687;48.254;11.454;2022-11-15T06:28:36;5.85;;;5.35;;
40955;SDS011;26687;48.254;11.454;2022-11-15T06:31:36;6.07;;;5.47;;
40955;SDS011;26687;48.254;11.454;2022-11-15T06:34:36;5.73;;;5.23;;
40955;SDS011;26687;48.254;11.454;2022-11-15T06:37:36;5.95;;;5.00;;
40955;SDS011;26687;48.254;11.454;2022-11-15T06:40:37;5.50;;;4.82;;
40955;SDS011;26687;48.254;11.454;2022-11-15T06:43:37;6.00;;;5.40;;
40955;SDS011;26687;48.254;11.454;2022-11-15T06:46:38;5.70;;;5.20;;
40955;SDS011;26687;48.254;11.454;2022-11-15T06:49:38;7.37;;;6.53;;
40955;SDS011;26687;48.254;11.454;2022-11-15T06:52:38;7.00;;;6.30;;
40955;SDS011;26687;48.254;11.454;2022-11-15T06:55:38;7.43;;;6.65;;
40955;SDS011;26687;48.254;11.454;2022-11-15T06:58:38;7.70;;;6.50;;
40955;SDS011;26687;48.254;11.454;2022-11-15T07:01:39;7.95;;;7.15;;
40955;SDS011;26687;48.254;11.454;2022-11-15T07:04:39;9.63;;;8.10;;
40955;SDS011;26687;48.254;11.454;2022-11-15T07:07:39;8.63;;;7.67;;
40955;SDS011;26687;48.254;11.454;2022-11-15T07:10:39;8.57;;;7.67;;
40955;SDS011;26687;48.254;11.454;2022-11-15T07:13:40;8.90;;;8.05;;
40955;SDS011;26687;48.254;11.454;2022-11-15T07:16:40;9.23;;;7.63;;
40955;SDS011;26687;48.254;11.454;2022-11-15T07:19:41;8.87;;;7.80;;
40955;SDS011;26687;48.254;11.454;2022-11-15T07:22:41;8.75;;;7.95;;
40955;SDS011;26687;48.254;11.454;2022-11-15T07:25:41;8.27;;;7.40;;
40955;SDS011;26687;48.254;11.454;2022-11-15T07:28:42;8.80;;;8.00;;
40955;SDS011;26687;48.254;11.454;2022-11-15T07:31:42;8.30;;;7.50;;
40955;SDS011;26687;48.254;11.454;2022-11-15T07:34:42;8.18;;;7.47;;
40955;SDS011;26687;48.254;11.454;2022-11-15T07:37:42;8.40;;;7.70;;
40955;SDS011;26687;48.254;11.454;2022-11-15T07:40:42;8.55;;;7.65;;
40955;SDS011;26687;48.254;11.454;2022-11-15T07:43:43;9.17;;;7.50;;
40955;SDS011;26687;48.254;11.454;2022-11-15T07:46:43;7.93;;;7.20;;
40955;SDS011;26687;48.254;11.454;2022-11-15T07:49:43;7.60;;;6.90;;
40955;SDS011;26687;48.254;11.454;2022-11-15T07:52:44;6.93;;;6.33;;
40955;SDS011;26687;48.254;11.454;2022-11-15T07:55:44;8.05;;;6.18;;
40955;SDS011;26687;48.254;11.454;2022-11-15T07:58:45;7.65;;;6.85;;
40955;SDS011;26687;48.254;11.454;2022-11-15T08:01:45;9.52;;;6.47;;
40955;SDS011;26687;48.254;11.454;2022-11-15T08:04:45;7.45;;;6.00;;
40955;SDS011;26687;48.254;11.454;2022-11-15T08:07:46;6.20;;;5.60;;
40955;SDS011;26687;48.254;11.454;2022-11-15T08:10:46;5.20;;;4.70;;
40955;SDS011;26687;48.254;11.454;2022-11-15T08:13:46;5.50;;;4.80;;
40955;SDS011;26687;48.254;11.454;2022-11-15T08:16:46;4.83;;;4.33;;
40955;SDS011;26687;48.254;11.454;2022-11-15T08:19:46;4.60;;;4.20;;
40955;SDS011;26687;48.254;11.454;2022-11-15T08:22:47;5.63;;;4.45;;
40955;SDS011;26687;48.254;11.454;2022-11-15T08:25:47;7.13;;;3.83;;
40955;SDS011;26687;48.254;11.454;2022-11-15T08:28:48;4.87;;;4.47;;
40955;SDS011;26687;48.254;11.454;2022-11-15T08:31:48;4.80;;;4.35;;
40955;SDS011;26687;48.254;11.454;2022-11-15T08:34:48;3.83;;;3.53;;
40955;SDS011;26687;48.254;11.454;2022-11-15T08:37:48;4.45;;;4.05;;
40955;SDS011;26687;48.254;11.454;2022-11-15T08:40:49;3.67;;;3.35;;
40955;SDS011;26687;48.254;11.454;2022-11-15T08:43:50;4.45;;;3.95;;
40955;SDS011;26687;48.254;11.454;2022-11-15T08:46:50;4.33;;;3.67;;
40955;SDS011;26687;48.254;11.454;2022-11-15T08:49:50;4.77;;;3.90;;
40955;SDS011;26687;48.254;11.454;2022-11-15T08:52:50;4.80;;;4.18;;
40955;SDS011;26687;48.254;11.454;2022-11-15T08:55:50;6.80;;;4.77;;
40955;SDS011;26687;48.254;11.454;2022-11-15T08:58:51;4.50;;;4.00;;
40955;SDS011;26687;48.254;11.454;2022-11-15T09:01:51;5.97;;;4.18;;
40955;SDS011;26687;48.254;11.454;2022-11-15T09:04:51;6.95;;;4.30;;
40955;SDS011;26687;48.254;11.454;2022-11-15T09:07:54;4.95;;;4.45;;
40955;SDS011;26687;48.254;11.454;2022-11-15T09:10:55;4.47;;;4.07;;
40955;SDS011;26687;48.254;11.454;2022-11-15T09:13:55;5.15;;;4.35;;
40955;SDS011;26687;48.254;11.454;2022-11-15T09:16:55;6.80;;;4.40;;
40955;SDS011;26687;48.254;11.454;2022-11-15T09:19:55;8.47;;;4.30;;
40955;SDS011;26687;48.254;11.454;2022-11-15T09:22:59;5.67;;;4.20;;
40955;SDS011;26687;48.254;11.454;2022-11-15T09:26:00;6.32;;;4.45;;
40955;SDS011;26687;48.254;11.454;2022-11-15T09:29:01;6.60;;;4.40;;
40955;SDS011;26687;48.254;11.454;2022-11-15T09:32:01;6.70;;;4.40;;
40955;SDS011;26687;48.254;11.454;2022-11-15T09:35:02;4.70;;;3.73;;
40955;SDS011;26687;48.254;11.454;2022-11-15T09:38:03;6.15;;;4.95;;
40955;SDS011;26687;48.254;11.454;2022-11-15T09:44:12;4.43;;;4.03;;
40955;SDS011;26687;48.254;11.454;2022-11-15T09:50:34;4.60;;;4.07;;
40955;SDS011;26687;48.254;11.454;2022-11-15T09:53:39;7.40;;;4.43;;
40955;SDS011;26687;48.254;11.454;2022-11-15T09:56:42;4.50;;;4.10;;
40955;SDS011;26687;48.254;11.454;2022-11-15T10:05:47;4.37;;;3.80;;
40955;SDS011;26687;48.254;11.454;2022-11-15T10:11:51;6.13;;;4.05;;
40955;SDS011;26687;48.254;11.454;2022-11-15T10:14:58;4.37;;;4.03;;
40955;SDS011;26687;48.254;11.454;2022-11-15T10:24:26;4.32;;;3.92;;
40955;SDS011;26687;48.254;11.454;2022-11-15T10:27:28;6.90;;;3.85;;
40955;SDS011;26687;48.254;11.454;2022-11-15T10:30:33;4.72;;;3.95;;
40955;SDS011;26687;48.254;11.454;2022-11-15T10:33:34;3.97;;;3.50;;
40955;SDS011;26687;48.254;11.454;2022-11-15T10:36:35;5.57;;;3.50;;
40955;SDS011;26687;48.254;11.454;2022-11-15T10:39:35;7.20;;;3.80;;
40955;SDS011;26687;48.254;11.454;2022-11-15T10:42:35;4.35;;;3.30;;
40955;SDS011;26687;48.254;11.454;2022-11-15T10:45:36;5.30;;;3.63;;
40955;SDS011;26687;48.254;11.454;2022-11-15T10:48:36;3.20;;;2.90;;
40955;SDS011;26687;48.254;11.454;2022-11-15T10:51:39;4.70;;;3.17;;
40955;SDS011;26687;48.254;11.454;2022-11-15T10:54:41;4.10;;;3.28;;
40955;SDS011;26687;48.254;11.454;2022-11-15T10:57:48;3.65;;;3.05;;
40955;SDS011;26687;48.254;11.454;2022-11-15T11:00:48;3.40;;;2.83;;
40955;SDS011;26687;48.254;11.454;2022-11-15T11:04:05;2.70;;;2.50;;
40955;SDS011;26687;48.254;11.454;2022-11-15T11:07:08;2.50;;;2.13;;
40955;SDS011;26687;48.254;11.454;2022-11-15T11:10:20;5.35;;;2.75;;
40955;SDS011;26687;48.254;11.454;2022-11-15T11:13:22;3.35;;;2.30;;
40955;SDS011;26687;48.254;11.454;2022-11-15T11:16:27;2.92;;;1.98;;
40955;SDS011;26687;48.254;11.454;2022-11-15T11:25:39;3.13;;;2.10;;
40955;SDS011;26687;48.254;11.454;2022-11-15T11:32:25;2.35;;;2.00;;
40955;SDS011;26687;48.254;11.454;2022-11-15T11:41:47;5.23;;;2.10;;
40955;SDS011;26687;48.254;11.454;2022-11-15T11:51:16;2.80;;;1.77;;
40955;SDS011;26687;48.254;11.454;2022-11-15T11:54:25;3.60;;;1.80;;
40955;SDS011;26687;48.254;11.454;2022-11-15T12:00:26;2.50;;;2.30;;
40955;SDS011;26687;48.254;11.454;2022-11-15T12:03:29;1.90;;;1.80;;
40955;SDS011;26687;48.254;11.454;2022-11-15T12:06:35;2.22;;;1.90;;
40955;SDS011;26687;48.254;11.454;2022-11-15T12:12:45;3.25;;;2.25;;
40955;SDS011;26687;48.254;11.454;2022-11-15T12:19:18;1.80;;;1.63;;
40955;SDS011;26687;48.254;11.454;2022-11-15T12:25:29;2.45;;;1.92;;
40955;SDS011;26687;48.254;11.454;2022-11-15T12:34:39;2.35;;;1.75;;
40955;SDS011;26687;48.254;11.454;2022-11-15T12:43:59;2.30;;;1.85;;
40955;SDS011;26687;48.254;11.454;2022-11-15T12:47:03;2.75;;;2.42;;
40955;SDS011;26687;48.254;11.454;2022-11-15T12:50:03;2.90;;;2.70;;
40955;SDS011;26687;48.254;11.454;2022-11-15T12:56:24;2.83;;;2.63;;
40955;SDS011;26687;48.254;11.454;2022-11-15T12:59:47;3.53;;;3.15;;
40955;SDS011;26687;48.254;11.454;2022-11-15T13:02:45;2.80;;;2.58;;
40955;SDS011;26687;48.254;11.454;2022-11-15T13:05:51;3.92;;;3.00;;
40955;SDS011;26687;48.254;11.454;2022-11-15T13:08:53;3.90;;;2.78;;
40955;SDS011;26687;48.254;11.454;2022-11-15T13:11:53;3.00;;;2.70;;
40955;SDS011;26687;48.254;11.454;2022-11-15T13:15:01;3.30;;;3.00;;
40955;SDS011;26687;48.254;11.454;2022-11-15T13:18:29;3.55;;;3.25;;
40955;SDS011;26687;48.254;11.454;2022-11-15T13:21:30;4.95;;;3.97;;
40955;SDS011;26687;48.254;11.454;2022-11-15T13:25:02;4.22;;;3.75;;
40955;SDS011;26687;48.254;11.454;2022-11-15T13:31:21;4.22;;;3.67;;
40955;SDS011;26687;48.254;11.454;2022-11-15T13:40:24;6.43;;;5.90;;
40955;SDS011;26687;48.254;11.454;2022-11-15T13:43:28;4.70;;;3.97;;
40955;SDS011;26687;48.254;11.454;2022-11-15T13:46:30;4.07;;;3.13;;
40955;SDS011;26687;48.254;11.454;2022-11-15T13:49:31;4.78;;;4.38;;
40955;SDS011;26687;48.254;11.454;2022-11-15T13:52:32;5.05;;;4.65;;
40955;SDS011;26687;48.254;11.454;2022-11-15T13:55:33;5.80;;;3.80;;
40955;SDS011;26687;48.254;11.454;2022-11-15T13:58:36;3.47;;;3.17;;
40955;SDS011;26687;48.254;11.454;2022-11-15T14:01:36;5.25;;;3.60;;
40955;SDS011;26687;48.254;11.454;2022-11-15T14:04:37;3.92;;;3.42;;
40955;SDS011;26687;48.254;11.454;2022-11-15T14:07:38;4.03;;;3.63;;
40955;SDS011;26687;48.254;11.454;2022-11-15T14:10:39;4.13;;;3.70;;
40955;SDS011;26687;48.254;11.454;2022-11-15T14:13:39;4.30;;;4.00;;
40955;SDS011;26687;48.254;11.454;2022-11-15T14:16:41;5.57;;;5.07;;
40955;SDS011;26687;48.254;11.454;2022-11-15T14:19:41;5.53;;;5.03;;
40955;SDS011;26687;48.254;11.454;2022-11-15T14:22:50;5.27;;;4.87;;
40955;SDS011;26687;48.254;11.454;2022-11-15T14:25:54;4.82;;;4.43;;
40955;SDS011;26687;48.254;11.454;2022-11-15T14:28:54;5.05;;;4.63;;
40955;SDS011;26687;48.254;11.454;2022-11-15T14:35:15;5.22;;;4.72;;
40955;SDS011;26687;48.254;11.454;2022-11-15T14:38:15;4.78;;;4.38;;
40955;SDS011;26687;48.254;11.454;2022-11-15T14:41:20;6.87;;;4.47;;
40955;SDS011;26687;48.254;11.454;2022-11-15T14:44:20;4.55;;;4.15;;
40955;SDS011;26687;48.254;11.454;2022-11-15T14:47:21;4.22;;;3.83;;
40955;SDS011;26687;48.254;11.454;2022-11-15T14:50:21;4.50;;;4.10;;
40955;SDS011;26687;48.254;11.454;2022-11-15T14:53:22;4.43;;;4.10;;
40955;SDS011;26687;48.254;11.454;2022-11-15T14:56:22;4.37;;;3.97;;
40955;SDS011;26687;48.254;11.454;2022-11-15T14:59:22;6.20;;;4.03;;
40955;SDS011;26687;48.254;11.454;2022-11-15T15:02:24;5.10;;;4.60;;
40955;SDS011;26687;48.254;11.454;2022-11-15T15:05:26;5.23;;;4.30;;
40955;SDS011;26687;48.254;11.454;2022-11-15T15:08:26;5.45;;;4.90;;
40955;SDS011;26687;48.254;11.454;2022-11-15T15:11:27;7.87;;;5.27;;
40955;SDS011;26687;48.254;11.454;2022-11-15T15:14:27;5.90;;;5.40;;
40955;SDS011;26687;48.254;11.454;2022-11-15T15:17:28;5.63;;;5.07;;
40955;SDS011;26687;48.254;11.454;2022-11-15T15:20:28;5.97;;;5.37;;
40955;SDS011;26687;48.254;11.454;2022-11-15T15:23:29;5.93;;;5.43;;
40955;SDS011;26687;48.254;11.454;2022-11-15T15:26:30;6.03;;;5.50;;
40955;SDS011;26687;48.254;11.454;2022-11-15T15:29:34;5.68;;;5.15;;
40955;SDS011;26687;48.254;11.454;2022-11-15T15:32:34;5.50;;;4.53;;
40955;SDS011;26687;48.254;11.454;2022-11-15T15:35:34;7.47;;;5.43;;
40955;SDS011;26687;48.254;11.454;2022-11-15T15:38:35;5.45;;;5.00;;
40955;SDS011;26687;48.254;11.454;2022-11-15T15:41:35;5.47;;;5.07;;
40955;SDS011;26687;48.254;11.454;2022-11-15T15:44:35;7.93;;;7.23;;
40955;SDS011;26687;48.254;11.454;2022-11-15T15:47:35;9.10;;;8.15;;
40955;SDS011;26687;48.254;11.454;2022-11-15T15:50:36;10.25;;;8.43;;
40955;SDS011;26687;48.254;11.454;2022-11-15T15:53:36;8.87;;;8.03;;
40955;SDS011;26687;48.254;11.454;2022-11-15T15:56:36;8.60;;;7.60;;
40955;SDS011;26687;48.254;11.454;2022-11-15T15:59:36;9.43;;;8.13;;
40955;SDS011;26687;48.254;11.454;2022-11-15T16:02:36;9.98;;;8.55;;
40955;SDS011;26687;48.254;11.454;2022-11-15T16:05:37;11.40;;;8.02;;
40955;SDS011;26687;48.254;11.454;2022-11-15T16:08:37;9.85;;;7.53;;
40955;SDS011;26687;48.254;11.454;2022-11-15T16:11:37;11.97;;;7.37;;
40955;SDS011;26687;48.254;11.454;2022-11-15T16:14:37;11.27;;;7.30;;
40955;SDS011;26687;48.254;11.454;2022-11-15T16:17:38;9.50;;;7.23;;
40955;SDS011;26687;48.254;11.454;2022-11-15T16:20:43;8.90;;;6.80;;
40955;SDS011;26687;48.254;11.454;2022-11-15T16:23:44;8.30;;;6.60;;
40955;SDS011;26687;48.254;11.454;2022-11-15T16:26:44;10.95;;;6.70;;
40955;SDS011;26687;48.254;11.454;2022-11-15T16:29:45;12.18;;;7.05;;
40955;SDS011;26687;48.254;11.454;2022-11-15T16:32:45;8.25;;;6.50;;
40955;SDS011;26687;48.254;11.454;2022-11-15T16:35:46;8.52;;;6.47;;
40955;SDS011;26687;48.254;11.454;2022-11-15T16:38:47;6.60;;;5.80;;
40955;SDS011;26687;48.254;11.454;2022-11-15T16:41:48;7.50;;;6.70;;
40955;SDS011;26687;48.254;11.454;2022-11-15T16:44:48;8.57;;;6.53;;
40955;SDS011;26687;48.254;11.454;2022-11-15T16:47:49;7.50;;;6.80;;
40955;SDS011;26687;48.254;11.454;2022-11-15T16:50:49;8.90;;;7.38;;
40955;SDS011;26687;48.254;11.454;2022-11-15T16:53:49;8.68;;;6.75;;
40955;SDS011;26687;48.254;11.454;2022-11-15T16:56:50;9.30;;;8.20;;
40955;SDS011;26687;48.254;11.454;2022-11-15T16:59:50;17.55;;;13.05;;
40955;SDS011;26687;48.254;11.454;2022-11-15T17:02:50;15.32;;;11.13;;
40955;SDS011;26687;48.254;11.454;2022-11-15T17:05:51;13.15;;;9.93;;
40955;SDS011;26687;48.254;11.454;2022-11-15T17:08:51;14.63;;;12.40;;
40955;SDS011;26687;48.254;11.454;2022-11-15T17:11:51;14.05;;;10.50;;
40955;SDS011;26687;48.254;11.454;2022-11-15T17:14:52;10.75;;;8.60;;
40955;SDS011;26687;48.254;11.454;2022-11-15T17:17:52;13.57;;;10.23;;
40955;SDS011;26687;48.254;11.454;2022-11-15T17:20:53;19.83;;;14.77;;
40955;SDS011;26687;48.254;11.454;2022-11-15T17:23:53;14.65;;;11.68;;
40955;SDS011;26687;48.254;11.454;2022-11-15T17:26:53;13.63;;;11.53;;
40955;SDS011;26687;48.254;11.454;2022-11-15T17:29:53;17.43;;;13.83;;
40955;SDS011;26687;48.254;11.454;2022-11-15T17:32:54;17.80;;;14.87;;
40955;SDS011;26687;48.254;11.454;2022-11-15T17:35:56;18.65;;;14.23;;
40955;SDS011;26687;48.254;11.454;2022-11-15T17:38:56;14.38;;;12.95;;
40955;SDS011;26687;48.254;11.454;2022-11-15T17:41:56;14.55;;;12.98;;
40955;SDS011;26687;48.254;11.454;2022-11-15T17:44:58;19.30;;;14.63;;
40955;SDS011;26687;48.254;11.454;2022-11-15T17:47:58;16.33;;;14.63;;
40955;SDS011;26687;48.254;11.454;2022-11-15T17:50:59;17.20;;;15.07;;
40955;SDS011;26687;48.254;11.454;2022-11-15T17:53:59;17.75;;;15.07;;
40955;SDS011;26687;48.254;11.454;2022-11-15T17:57:00;21.05;;;15.52;;
40955;SDS011;26687;48.254;11.454;2022-11-15T18:00:00;20.80;;;16.23;;
40955;SDS011;26687;48.254;11.454;2022-11-15T18:03:00;17.80;;;15.90;;
40955;SDS011;26687;48.254;11.454;2022-11-15T18:06:00;18.38;;;12.90;;
40955;SDS011;26687;48.254;11.454;2022-11-15T18:09:01;13.87;;;11.50;;
40955;SDS011;26687;48.254;11.454;2022-11-15T18:12:01;21.00;;;17.17;;
40955;SDS011;26687;48.254;11.454;2022-11-15T18:15:01;20.43;;;15.33;;
40955;SDS011;26687;48.254;11.454;2022-11-15T18:18:02;21.13;;;14.27;;
40955;SDS011;26687;48.254;11.454;2022-11-15T18:21:03;17.87;;;15.30;;
40955;SDS011;26687;48.254;11.454;2022-11-15T18:24:03;14.95;;;13.38;;
40955;SDS011;26687;48.254;11.454;2022-11-15T18:27:04;15.63;;;11.23;;
40955;SDS011;26687;48.254;11.454;2022-11-15T18:30:05;17.23;;;10.38;;
40955;SDS011;26687;48.254;11.454;2022-11-15T18:33:05;14.73;;;10.02;;
40955;SDS011;26687;48.254;11.454;2022-11-15T18:36:06;17.33;;;11.55;;
40955;SDS011;26687;48.254;11.454;2022-11-15T18:39:08;15.35;;;10.35;;
40955;SDS011;26687;48.254;11.454;2022-11-15T18:42:09;16.77;;;10.38;;
40955;SDS011;26687;48.254;11.454;2022-11-15T18:45:09;14.47;;;11.00;;
40955;SDS011;26687;48.254;11.454;2022-11-15T18:48:10;13.93;;;12.38;;
40955;SDS011;26687;48.254;11.454;2022-11-15T18:51:14;15.25;;;12.52;;
40955;SDS011;26687;48.254;11.454;2022-11-15T18:54:15;14.70;;;12.43;;
40955;SDS011;26687;48.254;11.454;2022-11-15T18:57:15;16.67;;;14.13;;
40955;SDS011;26687;48.254;11.454;2022-11-15T19:00:16;16.87;;;14.63;;
40955;SDS011;26687;48.254;11.454;2022-11-15T19:03:16;16.83;;;15.13;;
40955;SDS011;26687;48.254;11.454;2022-11-15T19:06:18;23.10;;;17.33;;
40955;SDS011;26687;48.254;11.454;2022-11-15T19:09:18;21.33;;;18.95;;
40955;SDS011;26687;48.254;11.454;2022-11-15T19:12:19;19.73;;;17.63;;
40955;SDS011;26687;48.254;11.454;2022-11-15T19:15:19;16.20;;;14.57;;
40955;SDS011;26687;48.254;11.454;2022-11-15T19:18:19;14.50;;;11.70;;
40955;SDS011;26687;48.254;11.454;2022-11-15T19:21:19;14.20;;;11.95;;
40955;SDS011;26687;48.254;11.454;2022-11-15T19:24:19;14.75;;;12.43;;
40955;SDS011;26687;48.254;11.454;2022-11-15T19:27:19;14.67;;;13.13;;
40955;SDS011;26687;48.254;11.454;2022-11-15T19:30:20;16.73;;;13.07;;
40955;SDS011;26687;48.254;11.454;2022-11-15T19:33:20;15.07;;;13.47;;
40955;SDS011;26687;48.254;11.454;2022-11-15T19:36:21;15.05;;;12.60;;
40955;SDS011;26687;48.254;11.454;2022-11-15T19:39:22;12.13;;;10.38;;
40955;SDS011;26687;48.254;11.454;2022-11-15T19:42:22;16.27;;;10.40;;
40955;SDS011;26687;48.254;11.454;2022-11-15T19:45:23;12.83;;;10.17;;
40955;SDS011;26687;48.254;11.454;2022-11-15T19:48:23;12.10;;;10.80;;
40955;SDS011;26687;48.254;11.454;2022-11-15T19:51:24;15.93;;;13.07;;